Terminal Aerodrome Forecast
Issued by NWS Brownsville, TX

Home | Current Version | Previous Version | Text Only | Print | Product List | Glossary On
Versions: 1 2 3 4 5 6 7 8 9 10 11 12 13 14 15 16 17 18 19 20 21 22 23 24
000
FTUS44 KBRO 240500
TAFBRO
TAF
KBRO 240525Z 2406/2506 VRB05KT 1/4SM FG VV002
     FM241000 VRB05KT 3SM BR SCT250
     FM241300 36012G19KT P6SM SCT250
     FM242200 03014KT P6SM FEW250
     FM250000 01005KT P6SM SCT250=

USA.gov is the U.S. government's official web portal to all federal, state and local government web resources and services.